Alma, Georgia
Current Conditions -  °F | °C
As of 2:53 PM on Thursday 29 Jan 2015 (Local Time) from KAMG Reporting Station
Clear Clear  
Wind Chill: 62°   Ceiling: Unl
Heat Index: 62°   Visibility: 10mi
Dew Point: 33°   Wind: 9mph
Humidity: 34%   Direction: 200°SSW
Pressure: 30.24"   Gusts: NA
Location:  31.54°N, 82.46°W
Report Text: KAMG 291953Z AUTO 20008KT 10SM CLR 17/01 A3024 RMK AO2 SLP239 T01670006
Loading
Personal Weather Stations






























Interactive Weather Map New forecast layout! Learn more

10-Day Weather Forecast

Advertisements
Track Severe Weather on mobile